Time;durP1;ratioP1;P1;durP2;ratioP2;P2;SDS_P1;SDS_P2;PMS_P1;PMS_P2;Temp;Humidity;BMP_temperature;BMP_pressure;BME280_temperature;BME280_humidity;BME280_pressure;Samples;Min_cycle;Max_cycle;Signal;HPM_P1;HPM_P2
2023/09/08 00:00:18;;;;;;;;;;;;;;;;;;5001645;28;20365;-77
2023/09/08 00:02:44;;;;;;;;;;;;;;;;;;5002305;28;19906;-75
2023/09/08 00:05:10;;;;;;;;;;;;;;;;;;5004230;28;19997;-75
2023/09/08 00:07:36;;;;;;;;;;;;;;;;;;5001593;28;20351;-74
2023/09/08 00:10:02;;;;;;;;;;;;;;;;;;5000767;28;19912;-74
2023/09/08 00:12:28;;;;;;;;;;;;;;;;;;5001841;28;19910;-74
2023/09/08 00:14:54;;;;;;;;;;;;;;;;;;5000154;28;19914;-75
2023/09/08 00:17:20;;;;;;;;;;;;;;;;;;5005135;28;19910;-75
2023/09/08 00:19:46;;;;;;;;;;;;;;;;;;5005755;28;20435;-75
2023/09/08 00:22:12;;;;;;;;;;;;;;;;;;4996566;28;19914;-75
2023/09/08 00:24:38;;;;;;;;;;;;;;;;;;5001367;28;19906;-74
2023/09/08 00:27:03;;;;;;;;;;;;;;;;;;5001488;28;19913;-74
2023/09/08 00:29:29;;;;;;;;;;;;;;;;;;5003652;28;20519;-75
2023/09/08 00:31:55;;;;;;;;;;;;;;;;;;5002481;28;19905;-74
2023/09/08 00:34:21;;;;;;;;;;;;;;;;;;4999811;28;19918;-75
2023/09/08 00:36:47;;;;;;;;;;;;;;;;;;5001442;28;19916;-74
2023/09/08 00:39:13;;;;;;;;;;;;;;;;;;5003895;28;19996;-75
2023/09/08 00:41:39;;;;;;;;;;;;;;;;;;5001227;28;20423;-75
2023/09/08 00:44:05;;;;;;;;;;;;;;;;;;4997262;28;19910;-73
2023/09/08 00:46:31;;;;;;;;;;;;;;;;;;4994243;28;19910;-75
2023/09/08 00:48:57;;;;;;;;;;;;;;;;;;4997361;28;19913;-74
2023/09/08 00:51:23;;;;;;;;;;;;;;;;;;5004515;28;19951;-74
2023/09/08 00:53:48;;;;;;;;;;;;;;;;;;5004471;28;19912;-74
2023/09/08 00:56:14;;;;;;;;;;;;;;;;;;5001590;28;20316;-73
2023/09/08 00:58:40;;;;;;;;;;;;;;;;;;5002129;28;19909;-74
2023/09/08 01:01:06;;;;;;;;;;;;;;;;;;5003806;28;19928;-74
2023/09/08 01:03:32;;;;;;;;;;;;;;;;;;5003385;28;19912;-74
2023/09/08 01:05:58;;;;;;;;;;;;;;;;;;5001792;28;19992;-74
2023/09/08 01:08:25;;;;;;;;;;;;;;;;;;5001716;28;20015;-73
2023/09/08 01:10:51;;;;;;;;;;;;;;;;;;5000713;28;19965;-73
2023/09/08 01:13:17;;;;;;;;;;;;;;;;;;5003628;28;20380;-73
2023/09/08 01:15:43;;;;;;;;;;;;;;;;;;5004026;28;20000;-74
2023/09/08 01:18:09;;;;;;;;;;;;;;;;;;5001117;28;19913;-73
2023/09/08 01:20:34;;;;;;;;;;;;;;;;;;5000577;28;19916;-73
2023/09/08 01:23:00;;;;;;;;;;;;;;;;;;5001113;28;19910;-73
2023/09/08 01:25:26;;;;;;;;;;;;;;;;;;5003703;28;20322;-73
2023/09/08 01:27:52;;;;;;;;;;;;;;;;;;5003349;28;19909;-73
2023/09/08 01:30:18;;;;;;;;;;;;;;;;;;5000570;28;19913;-74
2023/09/08 01:32:44;;;;;;;;;;;;;;;;;;4997174;28;19910;-73
2023/09/08 01:35:10;;;;;;;;;;;;;;;;;;5002214;28;19928;-73
2023/09/08 01:37:36;;;;;;;;;;;;;;;;;;5003902;28;19911;-73
2023/09/08 01:40:02;;;;;;;;;;;;;;;;;;5001935;28;20388;-73
2023/09/08 01:42:27;;;;;;;;;;;;;;;;;;5000456;28;19906;-73
2023/09/08 01:44:53;;;;;;;;;;;;;;;;;;5000084;28;19906;-74
2023/09/08 01:47:19;;;;;;;;;;;;;;;;;;5003644;28;19917;-73
2023/09/08 01:49:45;;;;;;;;;;;;;;;;;;5001921;28;19909;-72
2023/09/08 01:52:11;;;;;;;;;;;;;;;;;;4999343;28;19913;-73
2023/09/08 01:54:37;;;;;;;;;;;;;;;;;;5000132;28;19905;-73
2023/09/08 01:57:03;;;;;;;;;;;;;;;;;;5001285;28;19906;-76
2023/09/08 01:59:29;;;;;;;;;;;;;;;;;;5002161;28;19912;-75
2023/09/08 02:01:55;;;;;;;;;;;;;;;;;;5002621;28;19988;-77
2023/09/08 02:04:21;;;;;;;;;;;;;;;;;;4998481;28;20004;-76
2023/09/08 02:06:46;;;;;;;;;;;;;;;;;;4999922;28;19910;-76
2023/09/08 02:09:12;;;;;;;;;;;;;;;;;;4996839;28;19917;-76
2023/09/08 02:11:38;;;;;;;;;;;;;;;;;;5003428;28;19912;-76
2023/09/08 02:14:04;;;;;;;;;;;;;;;;;;5001509;28;19959;-75
2023/09/08 02:16:30;;;;;;;;;;;;;;;;;;5005422;28;19913;-76
2023/09/08 02:18:56;;;;;;;;;;;;;;;;;;5002570;28;19906;-76
2023/09/08 02:21:22;;;;;;;;;;;;;;;;;;5003327;28;19905;-76
2023/09/08 02:23:48;;;;;;;;;;;;;;;;;;5005374;28;19916;-76
2023/09/08 02:26:14;;;;;;;;;;;;;;;;;;5005984;28;19933;-77
2023/09/08 02:28:40;;;;;;;;;;;;;;;;;;4999869;28;19921;-76
2023/09/08 02:31:06;;;;;;;;;;;;;;;;;;5005374;28;19906;-77
2023/09/08 02:33:32;;;;;;;;;;;;;;;;;;5006985;28;19905;-76
2023/09/08 02:35:57;;;;;;;;;;;;;;;;;;5007964;28;19952;-77
2023/09/08 02:38:23;;;;;;;;;;;;;;;;;;5010773;28;19905;-76
2023/09/08 02:40:52;;;;;;;;;;;;;;;;;;5002737;28;19906;-77
2023/09/08 02:43:18;;;;;;;;;;;;;;;;;;5008343;28;20380;-75
2023/09/08 02:45:44;;;;;;;;;;;;;;;;;;5007662;28;19906;-76
2023/09/08 02:48:10;;;;;;;;;;;;;;;;;;5011142;28;21125;-76
2023/09/08 02:50:35;;;;;;;;;;;;;;;;;;5003805;28;20395;-76
2023/09/08 02:53:01;;;;;;;;;;;;;;;;;;5011396;28;19945;-76
2023/09/08 02:55:27;;;;;;;;;;;;;;;;;;4996415;28;19990;-76
2023/09/08 02:57:53;;;;;;;;;;;;;;;;;;5006471;28;19905;-78
2023/09/08 03:00:19;;;;;;;;;;;;;;;;;;5007402;28;19917;-77
2023/09/08 03:02:45;;;;;;;;;;;;;;;;;;5006686;28;19975;-78
2023/09/08 03:05:11;;;;;;;;;;;;;;;;;;5004230;28;20440;-74
2023/09/08 03:07:38;;;;;;;;;;;;;;;;;;5006679;28;20008;-75
2023/09/08 03:10:04;;;;;;;;;;;;;;;;;;5004310;28;19905;-75
2023/09/08 03:12:30;;;;;;;;;;;;;;;;;;4996757;28;19910;-75
2023/09/08 03:14:56;;;;;;;;;;;;;;;;;;5000630;28;19906;-75
2023/09/08 03:17:22;;;;;;;;;;;;;;;;;;5006672;28;19909;-75
2023/09/08 03:19:48;;;;;;;;;;;;;;;;;;5006531;28;19910;-75
2023/09/08 03:22:14;;;;;;;;;;;;;;;;;;5003267;28;19912;-75
2023/09/08 03:24:40;;;;;;;;;;;;;;;;;;5003063;28;20400;-76
2023/09/08 03:27:06;;;;;;;;;;;;;;;;;;5004353;28;19964;-76
2023/09/08 03:29:32;;;;;;;;;;;;;;;;;;5005263;28;19956;-76
2023/09/08 03:31:57;;;;;;;;;;;;;;;;;;5005480;28;19909;-75
2023/09/08 03:34:23;;;;;;;;;;;;;;;;;;4999971;28;19914;-74
2023/09/08 03:36:50;;;;;;;;;;;;;;;;;;5002621;28;19961;-76
2023/09/08 03:39:16;;;;;;;;;;;;;;;;;;5012360;28;19912;-76
2023/09/08 03:41:41;;;;;;;;;;;;;;;;;;5014002;28;19906;-76
2023/09/08 03:44:07;;;;;;;;;;;;;;;;;;5011277;28;19905;-75
2023/09/08 03:46:33;;;;;;;;;;;;;;;;;;5002405;28;19992;-75
2023/09/08 03:49:00;;;;;;;;;;;;;;;;;;5003123;28;19987;-76
2023/09/08 03:51:26;;;;;;;;;;;;;;;;;;5005086;28;19951;-75
2023/09/08 03:53:52;;;;;;;;;;;;;;;;;;5005222;28;20389;-77
2023/09/08 03:56:18;;;;;;;;;;;;;;;;;;5002312;28;19995;-76
2023/09/08 03:58:44;;;;;;;;;;;;;;;;;;5002760;28;19906;-76
2023/09/08 04:01:10;;;;;;;;;;;;;;;;;;5004990;28;19984;-75
2023/09/08 04:03:36;;;;;;;;;;;;;;;;;;5005231;28;19905;-74
2023/09/08 04:06:01;;;;;;;;;;;;;;;;;;5004004;28;19916;-76
2023/09/08 04:08:27;;;;;;;;;;;;;;;;;;5007507;28;19932;-76
2023/09/08 04:10:53;;;;;;;;;;;;;;;;;;5005099;28;19912;-76
2023/09/08 04:13:19;;;;;;;;;;;;;;;;;;5005150;28;19905;-76
2023/09/08 04:15:45;;;;;;;;;;;;;;;;;;5005404;28;19905;-77
2023/09/08 04:18:11;;;;;;;;;;;;;;;;;;5002395;28;19914;-77
2023/09/08 04:20:37;;;;;;;;;;;;;;;;;;5002057;28;19905;-75
2023/09/08 04:23:03;;;;;;;;;;;;;;;;;;5002821;28;19910;-75
2023/09/08 04:25:29;;;;;;;;;;;;;;;;;;5003804;28;19985;-76
2023/09/08 04:27:55;;;;;;;;;;;;;;;;;;5004450;28;19915;-76
2023/09/08 04:30:21;;;;;;;;;;;;;;;;;;5001770;28;19928;-76
2023/09/08 04:32:47;;;;;;;;;;;;;;;;;;5001701;28;19961;-77
2023/09/08 04:35:13;;;;;;;;;;;;;;;;;;5003692;28;20003;-76
2023/09/08 04:37:39;;;;;;;;;;;;;;;;;;5004777;28;19988;-76
2023/09/08 04:40:05;;;;;;;;;;;;;;;;;;5002900;28;19912;-76
2023/09/08 04:42:31;;;;;;;;;;;;;;;;;;5001337;28;19909;-76
2023/09/08 04:44:57;;;;;;;;;;;;;;;;;;5000234;28;20395;-76
2023/09/08 04:47:23;;;;;;;;;;;;;;;;;;5004373;28;19909;-73
2023/09/08 04:49:49;;;;;;;;;;;;;;;;;;5002436;28;19918;-75
2023/09/08 04:52:15;;;;;;;;;;;;;;;;;;5001397;28;19913;-75
2023/09/08 04:54:41;;;;;;;;;;;;;;;;;;4997975;28;19968;-76
2023/09/08 04:57:07;;;;;;;;;;;;;;;;;;5002565;28;19905;-76
2023/09/08 04:59:33;;;;;;;;;;;;;;;;;;5004497;28;19905;-76
2023/09/08 05:01:59;;;;;;;;;;;;;;;;;;5011538;28;20381;-76
2023/09/08 05:04:25;;;;;;;;;;;;;;;;;;5000669;28;20347;-74
2023/09/08 05:06:51;;;;;;;;;;;;;;;;;;5001005;28;20004;-74
2023/09/08 05:09:16;;;;;;;;;;;;;;;;;;5004074;28;19955;-74
2023/09/08 05:11:43;;;;;;;;;;;;;;;;;;5000556;28;20066;-73
2023/09/08 05:14:09;;;;;;;;;;;;;;;;;;5001500;28;19916;-76
2023/09/08 05:16:49;;;;;;;;;;;;;;;;;;5000769;28;19906;-74
2023/09/08 05:19:15;;;;;;;;;;;;;;;;;;5003711;28;19937;-75
2023/09/08 05:21:43;;;;;;;;;;;;;;;;;;5004235;28;20335;-76
2023/09/08 05:24:09;;;;;;;;;;;;;;;;;;5001176;28;19941;-75
2023/09/08 05:26:35;;;;;;;;;;;;;;;;;;5001457;28;19964;-75
2023/09/08 05:29:00;;;;;;;;;;;;;;;;;;5001600;28;19910;-74
2023/09/08 05:31:26;;;;;;;;;;;;;;;;;;5004329;28;19913;-74
2023/09/08 05:33:52;;;;;;;;;;;;;;;;;;5003386;28;19905;-75
2023/09/08 05:36:18;;;;;;;;;;;;;;;;;;4999024;28;20392;-74
2023/09/08 05:38:44;;;;;;;;;;;;;;;;;;5000369;28;19906;-75
2023/09/08 05:41:10;;;;;;;;;;;;;;;;;;5000983;28;19917;-74
2023/09/08 05:43:36;;;;;;;;;;;;;;;;;;5003383;28;19905;-74
2023/09/08 05:46:02;;;;;;;;;;;;;;;;;;5000185;28;19913;-75
2023/09/08 05:48:28;;;;;;;;;;;;;;;;;;5024943;22;19926;-71
2023/09/08 05:50:54;;;;;;;;;;;;;;;;;;5019433;28;20272;-73
2023/09/08 05:53:20;;;;;;;;;;;;;;;;;;5022917;28;19909;-72
2023/09/08 05:55:46;;;;;;;;;;;;;;;;;;5022974;28;19905;-74
2023/09/08 05:58:12;;;;;;;;;;;;;;;;;;5016604;28;19996;-73
2023/09/08 06:00:38;;;;;;;;;;;;;;;;;;5007614;28;19939;-73
2023/09/08 06:03:04;;;;;;;;;;;;;;;;;;5008746;28;19932;-72
2023/09/08 06:05:30;;;;;;;;;;;;;;;;;;5014540;28;19913;-73
2023/09/08 06:07:56;;;;;;;;;;;;;;;;;;5013163;28;19963;-73
2023/09/08 06:10:21;;;;;;;;;;;;;;;;;;5007862;28;19909;-74
2023/09/08 06:12:50;;;;;;;;;;;;;;;;;;5008068;28;19906;-73
2023/09/08 06:15:16;;;;;;;;;;;;;;;;;;5013202;28;19909;-72
2023/09/08 06:17:42;;;;;;;;;;;;;;;;;;5013258;28;20376;-73
2023/09/08 06:20:08;;;;;;;;;;;;;;;;;;5009736;28;19905;-73
2023/09/08 06:22:34;;;;;;;;;;;;;;;;;;5007793;28;20052;-74
2023/09/08 06:25:02;;;;;;;;;;;;;;;;;;5009007;28;19983;-74
2023/09/08 06:27:28;;;;;;;;;;;;;;;;;;5009595;28;19917;-74
2023/09/08 06:29:54;;;;;;;;;;;;;;;;;;5019612;28;20465;-74
2023/09/08 06:32:19;;;;;;;;;;;;;;;;;;5006351;28;20395;-74
2023/09/08 06:34:45;;;;;;;;;;;;;;;;;;5007154;28;19972;-74
2023/09/08 06:37:12;;;;;;;;;;;;;;;;;;5012066;28;19913;-74
2023/09/08 06:39:38;;;;;;;;;;;;;;;;;;5014319;28;19971;-75
2023/09/08 06:42:04;;;;;;;;;;;;;;;;;;5011055;28;20051;-74
2023/09/08 06:44:30;;;;;;;;;;;;;;;;;;5006159;28;20375;-72
2023/09/08 06:46:56;;;;;;;;;;;;;;;;;;5008295;28;19913;-73
2023/09/08 06:49:21;;;;;;;;;;;;;;;;;;5014369;28;20367;-74
2023/09/08 06:51:48;;;;;;;;;;;;;;;;;;5022816;28;19913;-74
2023/09/08 06:54:14;;;;;;;;;;;;;;;;;;5007822;28;20045;-74
2023/09/08 06:56:40;;;;;;;;;;;;;;;;;;5012153;28;19936;-73
2023/09/08 06:59:06;;;;;;;;;;;;;;;;;;5009957;28;19913;-72
2023/09/08 07:01:32;;;;;;;;;;;;;;;;;;5014477;28;19909;-73
2023/09/08 07:03:58;;;;;;;;;;;;;;;;;;5010643;28;19913;-73
2023/09/08 07:06:24;;;;;;;;;;;;;;;;;;5007029;28;20296;-74
2023/09/08 07:08:50;;;;;;;;;;;;;;;;;;5008259;28;19906;-74
2023/09/08 07:11:16;;;;;;;;;;;;;;;;;;5017038;28;19906;-73
2023/09/08 07:13:41;;;;;;;;;;;;;;;;;;5017774;28;20559;-73
2023/09/08 07:16:07;;;;;;;;;;;;;;;;;;5013762;28;19952;-73
2023/09/08 07:18:35;;;;;;;;;;;;;;;;;;5011256;28;19952;-73
2023/09/08 07:21:01;;;;;;;;;;;;;;;;;;5013269;28;19906;-76
2023/09/08 07:23:27;;;;;;;;;;;;;;;;;;5018093;28;19970;-74
2023/09/08 07:25:53;;;;;;;;;;;;;;;;;;5018058;28;19960;-75
2023/09/08 07:28:19;;;;;;;;;;;;;;;;;;5011523;28;20395;-74
2023/09/08 07:30:45;;;;;;;;;;;;;;;;;;5011642;28;19928;-74
2023/09/08 07:33:11;;;;;;;;;;;;;;;;;;5018210;28;20411;-74
2023/09/08 07:35:37;;;;;;;;;;;;;;;;;;5022814;28;19958;-75
2023/09/08 07:38:03;;;;;;;;;;;;;;;;;;5019663;28;19909;-75
2023/09/08 07:40:29;;;;;;;;;;;;;;;;;;5016719;28;19905;-74
2023/09/08 07:42:54;;;;;;;;;;;;;;;;;;5011868;28;19913;-73
2023/09/08 07:45:20;;;;;;;;;;;;;;;;;;5016237;28;20274;-74
2023/09/08 07:47:46;;;;;;;;;;;;;;;;;;5015774;28;19917;-74
2023/09/08 07:50:12;;;;;;;;;;;;;;;;;;5012097;28;19914;-74
2023/09/08 07:52:38;;;;;;;;;;;;;;;;;;5010549;28;19960;-74
2023/09/08 07:55:04;;;;;;;;;;;;;;;;;;5014300;28;19906;-75
2023/09/08 07:57:30;;;;;;;;;;;;;;;;;;5017371;28;19912;-74
2023/09/08 07:59:56;;;;;;;;;;;;;;;;;;5016190;28;19912;-74
2023/09/08 08:02:22;;;;;;;;;;;;;;;;;;5010519;28;19948;-74
2023/09/08 08:04:48;;;;;;;;;;;;;;;;;;5010081;28;19937;-74
2023/09/08 08:07:14;;;;;;;;;;;;;;;;;;5015361;28;19955;-75
2023/09/08 08:09:40;;;;;;;;;;;;;;;;;;5016902;28;19927;-75
2023/09/08 08:12:05;;;;;;;;;;;;;;;;;;5013104;28;20284;-74
2023/09/08 08:14:31;;;;;;;;;;;;;;;;;;5008570;28;19906;-75
2023/09/08 08:16:57;;;;;;;;;;;;;;;;;;5011274;28;19906;-74
2023/09/08 08:19:23;;;;;;;;;;;;;;;;;;5015400;28;19905;-74
2023/09/08 08:21:49;;;;;;;;;;;;;;;;;;5016446;28;19905;-74
2023/09/08 08:24:16;;;;;;;;;;;;;;;;;;5008826;28;19906;-75
2023/09/08 08:26:42;;;;;;;;;;;;;;;;;;5010018;28;19917;-74
2023/09/08 08:29:07;;;;;;;;;;;;;;;;;;5013525;28;19906;-75
2023/09/08 08:31:33;;;;;;;;;;;;;;;;;;5016875;28;19909;-74
2023/09/08 08:33:59;;;;;;;;;;;;;;;;;;5014198;28;19912;-74
2023/09/08 08:36:25;;;;;;;;;;;;;;;;;;5009764;28;19910;-74
2023/09/08 08:38:51;;;;;;;;;;;;;;;;;;5008727;28;19971;-75
2023/09/08 08:41:17;;;;;;;;;;;;;;;;;;5015882;28;19967;-74
2023/09/08 08:43:44;;;;;;;;;;;;;;;;;;5016417;28;19905;-74
2023/09/08 08:46:10;;;;;;;;;;;;;;;;;;5011514;28;19905;-74
2023/09/08 08:48:36;;;;;;;;;;;;;;;;;;5009190;28;20431;-74
2023/09/08 08:51:02;;;;;;;;;;;;;;;;;;5011528;28;19906;-74
2023/09/08 08:53:30;;;;;;;;;;;;;;;;;;5016181;28;19928;-75
2023/09/08 08:55:57;;;;;;;;;;;;;;;;;;5017566;28;19905;-74
2023/09/08 08:58:26;;;;;;;;;;;;;;;;;;5009422;28;19917;-74
2023/09/08 09:00:53;;;;;;;;;;;;;;;;;;5009358;28;19921;-74
2023/09/08 09:03:19;;;;;;;;;;;;;;;;;;5016061;28;20257;-73
2023/09/08 09:05:45;;;;;;;;;;;;;;;;;;5014944;28;20007;-74
2023/09/08 09:08:11;;;;;;;;;;;;;;;;;;5010979;28;20288;-74
2023/09/08 09:10:36;;;;;;;;;;;;;;;;;;5009403;28;19910;-74
2023/09/08 09:13:03;;;;;;;;;;;;;;;;;;5011179;28;19909;-74
2023/09/08 09:15:29;;;;;;;;;;;;;;;;;;5015752;28;19905;-74
2023/09/08 09:17:55;;;;;;;;;;;;;;;;;;5014501;28;20007;-74
2023/09/08 09:20:21;;;;;;;;;;;;;;;;;;5007592;28;20084;-74
2023/09/08 09:22:48;;;;;;;;;;;;;;;;;;5008975;28;20369;-75
2023/09/08 09:25:16;;;;;;;;;;;;;;;;;;5022882;28;20379;-74
2023/09/08 09:27:44;;;;;;;;;;;;;;;;;;5015595;28;19909;-73
2023/09/08 09:30:11;;;;;;;;;;;;;;;;;;4994944;28;19984;-75
2023/09/08 09:32:37;;;;;;;;;;;;;;;;;;5008187;28;19941;-74
2023/09/08 09:35:03;;;;;;;;;;;;;;;;;;5010829;28;20320;-74
2023/09/08 09:37:29;;;;;;;;;;;;;;;;;;5015695;28;19909;-74
2023/09/08 09:39:55;;;;;;;;;;;;;;;;;;5014729;28;19991;-74
2023/09/08 09:42:21;;;;;;;;;;;;;;;;;;5008990;28;20021;-75
2023/09/08 09:44:47;;;;;;;;;;;;;;;;;;5009126;28;20281;-74
2023/09/08 09:47:13;;;;;;;;;;;;;;;;;;5014171;28;19992;-74
2023/09/08 09:49:39;;;;;;;;;;;;;;;;;;5015780;28;20003;-74
2023/09/08 09:52:05;;;;;;;;;;;;;;;;;;5011878;28;20440;-74
2023/09/08 09:54:31;;;;;;;;;;;;;;;;;;5008659;28;19930;-74
2023/09/08 09:56:57;;;;;;;;;;;;;;;;;;5011946;28;19910;-74
2023/09/08 09:59:23;;;;;;;;;;;;;;;;;;5015126;28;19912;-74
2023/09/08 10:01:49;;;;;;;;;;;;;;;;;;5014164;28;19912;-73
2023/09/08 10:04:15;;;;;;;;;;;;;;;;;;5007967;28;20280;-75
2023/09/08 10:06:41;;;;;;;;;;;;;;;;;;5009086;28;20376;-74
2023/09/08 10:09:15;;;;;;;;;;;;;;;;;;5014076;28;19916;-73
2023/09/08 10:11:41;;;;;;;;;;;;;;;;;;5017155;28;19905;-73
2023/09/08 10:14:11;;;;;;;;;;;;;;;;;;5015146;28;19931;-74
2023/09/08 10:16:36;;;;;;;;;;;;;;;;;;5010382;28;19928;-73
2023/09/08 10:19:03;;;;;;;;;;;;;;;;;;5010326;28;19972;-73
2023/09/08 10:21:29;;;;;;;;;;;;;;;;;;5015457;28;19905;-74
2023/09/08 10:23:55;;;;;;;;;;;;;;;;;;5014113;28;20414;-72
2023/09/08 10:26:21;;;;;;;;;;;;;;;;;;5007128;28;19906;-73
2023/09/08 10:28:48;;;;;;;;;;;;;;;;;;5007961;28;19917;-73
2023/09/08 10:31:13;;;;;;;;;;;;;;;;;;5012652;28;20328;-73
2023/09/08 10:33:39;;;;;;;;;;;;;;;;;;5014401;28;19906;-73
2023/09/08 10:36:05;;;;;;;;;;;;;;;;;;5012959;28;19912;-74
2023/09/08 10:38:31;;;;;;;;;;;;;;;;;;5013437;28;19928;-74
2023/09/08 10:40:57;;;;;;;;;;;;;;;;;;5008866;28;19913;-67
2023/09/08 10:43:23;;;;;;;;;;;;;;;;;;5013407;28;19912;-66
2023/09/08 10:45:49;;;;;;;;;;;;;;;;;;5022922;28;20397;-67
2023/09/08 10:48:15;;;;;;;;;;;;;;;;;;5012244;28;19913;-66
2023/09/08 10:50:41;;;;;;;;;;;;;;;;;;5011991;28;19906;-67
2023/09/08 10:53:07;;;;;;;;;;;;;;;;;;5015643;28;20044;-67
2023/09/08 10:55:33;;;;;;;;;;;;;;;;;;5021266;28;19905;-67
2023/09/08 10:57:59;;;;;;;;;;;;;;;;;;5016604;28;19905;-67
2023/09/08 11:00:25;;;;;;;;;;;;;;;;;;5011848;28;19952;-67
2023/09/08 11:02:51;;;;;;;;;;;;;;;;;;5011548;28;20144;-67
2023/09/08 11:05:18;;;;;;;;;;;;;;;;;;5017447;28;19912;-67
2023/09/08 11:07:44;;;;;;;;;;;;;;;;;;5018213;28;19908;-67
2023/09/08 11:10:10;;;;;;;;;;;;;;;;;;5013409;28;20026;-67
2023/09/08 11:12:36;;;;;;;;;;;;;;;;;;5011488;28;20386;-67
2023/09/08 11:15:04;;;;;;;;;;;;;;;;;;5012110;28;19916;-67
2023/09/08 11:17:30;;;;;;;;;;;;;;;;;;5017923;28;19905;-67
2023/09/08 11:19:56;;;;;;;;;;;;;;;;;;5009718;28;19912;-74
2023/09/08 11:22:23;;;;;;;;;;;;;;;;;;5013670;28;19909;-73
2023/09/08 11:24:49;;;;;;;;;;;;;;;;;;5014859;28;19905;-72
2023/09/08 11:27:15;;;;;;;;;;;;;;;;;;5015289;28;20327;-72
2023/09/08 11:29:41;;;;;;;;;;;;;;;;;;5014217;28;19905;-73
2023/09/08 11:32:07;;;;;;;;;;;;;;;;;;5014844;28;20361;-72
2023/09/08 11:34:33;;;;;;;;;;;;;;;;;;5014573;28;19912;-74
2023/09/08 11:36:59;;;;;;;;;;;;;;;;;;5015312;28;19990;-72
2023/09/08 11:39:27;;;;;;;;;;;;;;;;;;5014979;28;20334;-73
2023/09/08 11:41:56;;;;;;;;;;;;;;;;;;5015105;28;19906;-72
2023/09/08 11:44:22;;;;;;;;;;;;;;;;;;5014930;28;20039;-72
2023/09/08 11:46:49;;;;;;;;;;;;;;;;;;5015050;28;19964;-73
2023/09/08 11:49:15;;;;;;;;;;;;;;;;;;5015244;28;20007;-73
2023/09/08 11:51:41;;;;;;;;;;;;;;;;;;5014738;28;19964;-73
2023/09/08 11:54:06;;;;;;;;;;;;;;;;;;5014457;28;20013;-72
2023/09/08 11:56:32;;;;;;;;;;;;;;;;;;5013968;28;20018;-71
2023/09/08 11:58:58;;;;;;;;;;;;;;;;;;5014856;28;19905;-73
2023/09/08 12:01:24;;;;;;;;;;;;;;;;;;5014798;28;20356;-73
2023/09/08 12:03:50;;;;;;;;;;;;;;;;;;5014113;28;19958;-71
2023/09/08 12:06:16;;;;;;;;;;;;;;;;;;5014448;28;19905;-71
2023/09/08 12:08:44;;;;;;;;;;;;;;;;;;5014062;28;20411;-72
2023/09/08 12:11:10;;;;;;;;;;;;;;;;;;5014436;28;19929;-72
2023/09/08 12:13:36;;;;;;;;;;;;;;;;;;5013962;28;20372;-72
2023/09/08 12:16:02;;;;;;;;;;;;;;;;;;5014275;28;19905;-72
2023/09/08 12:18:27;;;;;;;;;;;;;;;;;;5014105;28;19966;-72
2023/09/08 12:20:53;;;;;;;;;;;;;;;;;;5014145;28;19905;-72
2023/09/08 12:23:19;;;;;;;;;;;;;;;;;;5014277;28;20281;-71
2023/09/08 12:25:45;;;;;;;;;;;;;;;;;;5014093;28;19905;-72
2023/09/08 12:28:11;;;;;;;;;;;;;;;;;;5013861;28;19909;-72
2023/09/08 12:30:37;;;;;;;;;;;;;;;;;;5012698;28;19912;-72
2023/09/08 12:33:03;;;;;;;;;;;;;;;;;;5013789;28;19996;-72
2023/09/08 12:35:29;;;;;;;;;;;;;;;;;;5014160;28;20391;-72
2023/09/08 12:37:55;;;;;;;;;;;;;;;;;;5013966;28;19905;-72
2023/09/08 12:40:21;;;;;;;;;;;;;;;;;;5014534;28;19905;-72
2023/09/08 12:42:47;;;;;;;;;;;;;;;;;;5015300;28;19905;-73
2023/09/08 12:45:13;;;;;;;;;;;;;;;;;;5015426;28;19916;-73
2023/09/08 12:47:39;;;;;;;;;;;;;;;;;;5014687;28;19909;-72
2023/09/08 12:50:05;;;;;;;;;;;;;;;;;;5015685;28;19910;-72
2023/09/08 12:52:31;;;;;;;;;;;;;;;;;;5013762;28;20356;-71
2023/09/08 12:54:57;;;;;;;;;;;;;;;;;;5013884;28;19906;-72
2023/09/08 12:57:23;;;;;;;;;;;;;;;;;;5013540;28;19901;-72
2023/09/08 12:59:51;;;;;;;;;;;;;;;;;;5013590;28;20364;-72
2023/09/08 13:02:17;;;;;;;;;;;;;;;;;;5013758;28;19908;-72
2023/09/08 13:04:48;;;;;;;;;;;;;;;;;;5013271;28;20004;-72
2023/09/08 13:07:14;;;;;;;;;;;;;;;;;;5013380;28;19913;-73
2023/09/08 13:09:40;;;;;;;;;;;;;;;;;;5011495;28;19950;-72
2023/09/08 13:12:06;;;;;;;;;;;;;;;;;;5011155;28;19967;-73
2023/09/08 13:14:31;;;;;;;;;;;;;;;;;;5012773;28;19905;-72
2023/09/08 13:16:57;;;;;;;;;;;;;;;;;;5013131;28;19909;-72
2023/09/08 13:19:23;;;;;;;;;;;;;;;;;;5013095;28;19906;-72
2023/09/08 13:21:49;;;;;;;;;;;;;;;;;;5013167;28;20341;-71
2023/09/08 13:24:15;;;;;;;;;;;;;;;;;;5012757;28;19901;-73
2023/09/08 13:26:41;;;;;;;;;;;;;;;;;;5012778;28;19905;-72
2023/09/08 13:29:07;;;;;;;;;;;;;;;;;;5012655;28;19912;-71
2023/09/08 13:31:33;;;;;;;;;;;;;;;;;;5012841;28;19909;-72
2023/09/08 13:33:59;;;;;;;;;;;;;;;;;;5012456;28;19909;-72
2023/09/08 13:36:24;;;;;;;;;;;;;;;;;;5012766;28;19905;-72
2023/09/08 13:38:50;;;;;;;;;;;;;;;;;;5012748;28;19909;-73
2023/09/08 13:41:16;;;;;;;;;;;;;;;;;;5012917;28;20339;-72
2023/09/08 13:43:42;;;;;;;;;;;;;;;;;;5012765;28;19909;-72
2023/09/08 13:46:08;;;;;;;;;;;;;;;;;;5013191;28;19955;-73
2023/09/08 13:48:34;;;;;;;;;;;;;;;;;;5012803;28;19952;-72
2023/09/08 13:51:00;;;;;;;;;;;;;;;;;;5014209;28;20024;-72
2023/09/08 13:53:26;;;;;;;;;;;;;;;;;;5015609;28;20380;-72
2023/09/08 13:55:52;;;;;;;;;;;;;;;;;;5018109;28;19920;-72
2023/09/08 13:58:18;;;;;;;;;;;;;;;;;;5012757;28;19905;-72
2023/09/08 14:00:44;;;;;;;;;;;;;;;;;;5012726;28;19912;-72
2023/09/08 14:03:10;;;;;;;;;;;;;;;;;;5011109;28;19905;-73
2023/09/08 14:05:36;;;;;;;;;;;;;;;;;;5012665;28;19917;-72
2023/09/08 14:08:02;;;;;;;;;;;;;;;;;;5012342;28;19909;-72
2023/09/08 14:10:28;;;;;;;;;;;;;;;;;;5008197;28;19905;-73
2023/09/08 14:12:54;;;;;;;;;;;;;;;;;;4992496;28;20427;-70
2023/09/08 14:15:20;;;;;;;;;;;;;;;;;;4995172;28;19916;-71
2023/09/08 14:17:45;;;;;;;;;;;;;;;;;;4991413;28;20118;-70
2023/09/08 14:20:11;;;;;;;;;;;;;;;;;;4991694;28;19959;-72
2023/09/08 14:22:38;;;;;;;;;;;;;;;;;;4991669;28;19905;-73
2023/09/08 14:25:04;;;;;;;;;;;;;;;;;;4992552;28;19910;-71
2023/09/08 14:27:30;;;;;;;;;;;;;;;;;;4992797;28;20020;-72
2023/09/08 14:29:56;;;;;;;;;;;;;;;;;;4992617;28;19970;-72
2023/09/08 14:32:22;;;;;;;;;;;;;;;;;;4992608;28;19901;-72
2023/09/08 14:34:48;;;;;;;;;;;;;;;;;;4992279;28;20332;-75
2023/09/08 14:37:14;;;;;;;;;;;;;;;;;;4992402;28;19948;-72
2023/09/08 14:39:40;;;;;;;;;;;;;;;;;;4992647;28;19936;-72
2023/09/08 14:42:06;;;;;;;;;;;;;;;;;;4992745;28;20309;-72
2023/09/08 14:44:31;;;;;;;;;;;;;;;;;;4992848;28;19906;-72
2023/09/08 14:46:57;;;;;;;;;;;;;;;;;;5009265;28;20343;-71
2023/09/08 14:49:23;;;;;;;;;;;;;;;;;;5011303;28;19984;-73
2023/09/08 14:51:49;;;;;;;;;;;;;;;;;;5010960;28;20287;-72
2023/09/08 14:54:15;;;;;;;;;;;;;;;;;;5011786;28;20311;-71
2023/09/08 14:56:41;;;;;;;;;;;;;;;;;;5010412;28;19906;-71
2023/09/08 14:59:07;;;;;;;;;;;;;;;;;;5011967;28;19964;-72
2023/09/08 15:01:33;;;;;;;;;;;;;;;;;;5012135;28;19963;-72
2023/09/08 15:03:59;;;;;;;;;;;;;;;;;;5011768;28;19910;-72
2023/09/08 15:06:25;;;;;;;;;;;;;;;;;;5010569;28;19927;-72
2023/09/08 15:08:51;;;;;;;;;;;;;;;;;;5011696;28;19916;-71
2023/09/08 15:11:16;;;;;;;;;;;;;;;;;;5000846;28;20232;-72
2023/09/08 15:13:42;;;;;;;;;;;;;;;;;;4992429;28;19910;-72
2023/09/08 15:16:08;;;;;;;;;;;;;;;;;;4992839;28;19913;-72
2023/09/08 15:18:34;;;;;;;;;;;;;;;;;;4994240;28;19965;-72
2023/09/08 15:21:00;;;;;;;;;;;;;;;;;;4993290;28;19972;-71
2023/09/08 15:23:26;;;;;;;;;;;;;;;;;;4994680;28;19997;-71
2023/09/08 15:25:52;;;;;;;;;;;;;;;;;;4993264;28;19994;-72
2023/09/08 15:28:18;;;;;;;;;;;;;;;;;;4991998;28;19956;-72
2023/09/08 15:30:44;;;;;;;;;;;;;;;;;;4992913;28;19956;-71
2023/09/08 15:33:10;;;;;;;;;;;;;;;;;;4994199;28;19916;-72
2023/09/08 15:35:36;;;;;;;;;;;;;;;;;;4995522;28;19906;-72
2023/09/08 15:38:01;;;;;;;;;;;;;;;;;;4995598;28;20281;-73
2023/09/08 15:40:27;;;;;;;;;;;;;;;;;;4995950;28;19928;-73
2023/09/08 15:42:53;;;;;;;;;;;;;;;;;;4995793;28;19913;-70
2023/09/08 15:45:19;;;;;;;;;;;;;;;;;;4995367;28;20436;-72
2023/09/08 15:47:46;;;;;;;;;;;;;;;;;;4995168;28;20048;-72
2023/09/08 15:50:11;;;;;;;;;;;;;;;;;;4995797;28;19905;-71
2023/09/08 15:52:37;;;;;;;;;;;;;;;;;;4995381;28;19906;-72
2023/09/08 15:55:04;;;;;;;;;;;;;;;;;;4995135;28;19906;-72
2023/09/08 15:57:30;;;;;;;;;;;;;;;;;;4993721;28;19929;-72
2023/09/08 15:59:56;;;;;;;;;;;;;;;;;;4995290;28;20369;-72
2023/09/08 16:02:22;;;;;;;;;;;;;;;;;;4995266;28;19933;-72
2023/09/08 16:04:48;;;;;;;;;;;;;;;;;;4994975;28;20392;-72
2023/09/08 16:07:13;;;;;;;;;;;;;;;;;;4994801;28;19917;-71
2023/09/08 16:09:39;;;;;;;;;;;;;;;;;;4994943;28;19913;-71
2023/09/08 16:12:05;;;;;;;;;;;;;;;;;;4994883;28;20314;-72
2023/09/08 16:14:31;;;;;;;;;;;;;;;;;;4994638;28;19905;-72
2023/09/08 16:16:57;;;;;;;;;;;;;;;;;;4994882;28;19934;-72
2023/09/08 16:19:23;;;;;;;;;;;;;;;;;;4994571;28;19909;-72
2023/09/08 16:21:49;;;;;;;;;;;;;;;;;;4999264;28;20356;-72
2023/09/08 16:24:15;;;;;;;;;;;;;;;;;;5014247;28;19909;-73
2023/09/08 16:26:41;;;;;;;;;;;;;;;;;;5014051;28;19905;-72
2023/09/08 16:29:07;;;;;;;;;;;;;;;;;;5013960;28;19967;-71
2023/09/08 16:31:33;;;;;;;;;;;;;;;;;;5013949;28;20034;-72
2023/09/08 16:33:58;;;;;;;;;;;;;;;;;;5013912;28;19983;-72
2023/09/08 16:36:24;;;;;;;;;;;;;;;;;;5014037;28;19905;-72